createdAt,value
2022-11-05T00:00:44.701Z,99957.7
2022-11-05T00:01:49.054Z,99962.25
2022-11-05T00:02:53.517Z,99960.86
2022-11-05T00:03:57.916Z,99965.2
2022-11-05T00:05:02.254Z,99963.02
2022-11-05T00:06:06.452Z,99957.25
2022-11-05T00:07:10.654Z,99951.61
2022-11-05T00:08:14.831Z,99957.44
2022-11-05T00:09:19.032Z,99956.84
2022-11-05T00:10:23.270Z,99948.55
2022-11-05T00:11:27.485Z,99953.58
2022-11-05T00:12:31.728Z,99948.42
2022-11-05T00:13:35.968Z,99950.17
2022-11-05T00:14:40.143Z,99949.92
2022-11-05T00:15:44.377Z,99948.75
2022-11-05T00:16:48.575Z,99946.75
2022-11-05T00:17:52.812Z,99945.25
2022-11-05T00:18:57.028Z,99947.19
2022-11-05T00:20:01.231Z,99943.09
2022-11-05T00:21:05.488Z,99944.75
2022-11-05T00:22:09.658Z,99944.56
2022-11-05T00:23:15.243Z,99946.31
2022-11-05T00:24:25.112Z,99953.86
2022-11-05T00:25:29.422Z,99950.44
2022-11-05T00:26:33.620Z,99953.53
2022-11-05T00:27:37.926Z,99961.66
2022-11-05T00:28:42.135Z,99961.58
2022-11-05T00:29:46.359Z,99962.06
2022-11-05T00:30:50.554Z,99965.31
2022-11-05T00:31:54.747Z,99960.52
2022-11-05T00:32:59.006Z,99962.75
2022-11-05T00:34:03.221Z,99964.03
2022-11-05T00:35:07.587Z,99965.95
2022-11-05T00:36:11.883Z,99965.87
2022-11-05T00:37:16.165Z,99969.13
2022-11-05T00:38:20.344Z,99965.55
2022-11-05T00:39:24.535Z,99972.13
2022-11-05T00:40:28.809Z,99968.36
2022-11-05T00:41:33.032Z,99977.6
2022-11-05T00:42:37.232Z,99968.91
2022-11-05T00:43:41.423Z,99966.03
2022-11-05T00:44:45.604Z,99969.72
2022-11-05T00:45:49.819Z,99969.8
2022-11-05T00:47:00.574Z,99970
2022-11-05T00:48:04.787Z,99962.04
2022-11-05T00:49:09.011Z,99968.98
2022-11-05T00:50:13.243Z,99977.19
2022-11-05T00:51:17.475Z,99977.79
2022-11-05T00:52:21.649Z,99975.03
2022-11-05T00:53:25.859Z,99971.17
2022-11-05T00:54:30.093Z,99977.46
2022-11-05T00:55:34.360Z,99980.22
2022-11-05T00:56:38.597Z,99978.61
2022-11-05T00:57:42.813Z,99982.96
2022-11-05T00:58:47.015Z,99983.37
2022-11-05T00:59:51.205Z,99987.03
2022-11-05T01:00:55.407Z,99983.09
2022-11-05T01:02:00.064Z,99983.42
2022-11-05T01:03:04.591Z,99984.44
2022-11-05T01:04:08.795Z,99981.95
2022-11-05T01:05:12.999Z,99992.06
2022-11-05T01:06:17.228Z,99990.12
2022-11-05T01:07:21.486Z,99997.5
2022-11-05T01:08:25.670Z,99997.5
2022-11-05T01:09:29.879Z,100000.54
2022-11-05T01:10:34.127Z,100005.73
2022-11-05T01:11:38.457Z,100009.18
2022-11-05T01:12:42.711Z,100003.98
2022-11-05T01:13:46.933Z,100011.53
2022-11-05T01:14:51.168Z,100011.53
2022-11-05T01:15:55.440Z,100007.84
2022-11-05T01:16:59.668Z,100003.57
2022-11-05T01:18:03.918Z,100004.09
2022-11-05T01:19:08.140Z,100002.42
2022-11-05T01:20:12.386Z,100002.91
2022-11-05T01:21:16.662Z,100006
2022-11-05T01:22:20.914Z,99995.28
2022-11-05T01:23:25.186Z,99999.82
2022-11-05T01:24:29.413Z,100007.53
2022-11-05T01:25:33.591Z,100009.09
2022-11-05T01:26:37.808Z,100010.64
2022-11-05T01:27:42.020Z,100005.2
2022-11-05T01:28:46.437Z,100012.72
2022-11-05T01:29:50.763Z,100012.39
2022-11-05T01:30:55.006Z,100018.08
2022-11-05T01:31:59.256Z,100022.34
2022-11-05T01:33:03.543Z,100027.05
2022-11-05T01:34:07.796Z,100024.29
2022-11-05T01:35:11.991Z,100024.95
2022-11-05T01:36:16.250Z,100025.77
2022-11-05T01:37:20.486Z,100025.44
2022-11-05T01:38:24.696Z,100027.9
2022-11-05T01:39:28.960Z,100033.25
2022-11-05T01:40:33.222Z,100032.33
2022-11-05T01:41:37.482Z,100032.73
2022-11-05T01:42:41.686Z,100040.36
2022-11-05T01:43:45.902Z,100037.08
2022-11-05T01:44:50.129Z,100042.36
2022-11-05T01:45:54.356Z,100043.38
2022-11-05T01:46:58.849Z,100051.33
2022-11-05T01:48:03.117Z,100053.84
2022-11-05T01:49:07.350Z,100050.23
2022-11-05T01:50:11.578Z,100052.58
2022-11-05T01:51:15.843Z,100056.11
2022-11-05T01:52:20.054Z,100059.27
2022-11-05T01:53:24.255Z,100061.05
2022-11-05T01:54:28.466Z,100063.87
2022-11-05T01:55:32.705Z,100064.55
2022-11-05T01:56:36.954Z,100061.88
2022-11-05T01:57:41.182Z,100064.14
2022-11-05T01:58:45.410Z,100075.34
2022-11-05T01:59:49.684Z,100072.04
2022-11-05T02:00:53.920Z,100075.13
2022-11-05T02:01:58.401Z,100071.33
2022-11-05T02:03:03.260Z,100069.93
2022-11-05T02:04:07.652Z,100074.47
2022-11-05T02:05:11.881Z,100071.2
2022-11-05T02:06:16.144Z,100069.27
2022-11-05T02:07:20.429Z,100069.7
2022-11-05T02:08:24.678Z,100073.95
2022-11-05T02:09:28.878Z,100068.1
2022-11-05T02:10:33.108Z,100073.2
2022-11-05T02:11:37.348Z,100070.13
2022-11-05T02:12:41.584Z,100070.63
2022-11-05T02:13:45.841Z,100071.55
2022-11-05T02:14:50.106Z,100062.43
2022-11-05T02:15:54.371Z,100069.28
2022-11-05T02:16:58.602Z,100067.05
2022-11-05T02:18:02.852Z,100065.78
2022-11-05T02:19:07.142Z,100071.2
2022-11-05T02:20:11.398Z,100073.06
2022-11-05T02:21:15.642Z,100066.26
2022-11-05T02:22:19.864Z,100075.74
2022-11-05T02:23:24.110Z,100076.31
2022-11-05T02:24:28.352Z,100073.97
2022-11-05T02:25:32.603Z,100080.91
2022-11-05T02:26:36.831Z,100084.95
2022-11-05T02:27:41.079Z,100084.28
2022-11-05T02:28:45.331Z,100092.66
2022-11-05T02:29:49.591Z,100086.28
2022-11-05T02:30:53.842Z,100088.55
2022-11-05T02:31:58.101Z,100083.53
2022-11-05T02:33:02.325Z,100085.61
2022-11-05T02:34:06.562Z,100082.19
2022-11-05T02:35:10.819Z,100080
2022-11-05T02:36:15.064Z,100082.45
2022-11-05T02:37:19.319Z,100080.34
2022-11-05T02:38:23.549Z,100068.88
2022-11-05T02:39:27.766Z,100078.84
2022-11-05T02:40:31.994Z,100077.18
2022-11-05T02:41:36.286Z,100078
2022-11-05T02:42:40.516Z,100075.09
2022-11-05T02:43:44.802Z,100072.33
2022-11-05T02:44:49.031Z,100073.51
2022-11-05T02:45:53.282Z,100079.45
2022-11-05T02:46:57.489Z,100077.34
2022-11-05T02:48:01.984Z,100081.81
2022-11-05T02:49:06.251Z,100078.2
2022-11-05T02:50:10.480Z,100076.11
2022-11-05T02:51:14.673Z,100083.48
2022-11-05T02:52:18.920Z,100079.62
2022-11-05T02:53:23.131Z,100081.23
2022-11-05T02:54:27.375Z,100079.73
2022-11-05T02:55:31.593Z,100077.13
2022-11-05T02:56:35.835Z,100087.16
2022-11-05T02:57:40.063Z,100080.87
2022-11-05T02:58:44.287Z,100087.59
2022-11-05T02:59:48.546Z,100084.64
2022-11-05T03:00:52.767Z,100092.95
2022-11-05T03:01:57.388Z,100093.69
2022-11-05T03:03:02.052Z,100094.36
2022-11-05T03:04:06.517Z,100094.03
2022-11-05T03:05:10.756Z,100103.41
2022-11-05T03:06:14.975Z,100105.19
2022-11-05T03:07:19.460Z,100109.08
2022-11-05T03:08:23.887Z,100107.74
2022-11-05T03:09:28.335Z,100114.03
2022-11-05T03:10:32.567Z,100114.55
2022-11-05T03:11:36.809Z,100116.62
2022-11-05T03:12:41.046Z,100122.39
2022-11-05T03:13:45.283Z,100123.55
2022-11-05T03:14:49.548Z,100123.88
2022-11-05T03:15:54.024Z,100120.87
2022-11-05T03:16:58.266Z,100129.17
2022-11-05T03:18:02.493Z,100127.75
2022-11-05T03:19:06.774Z,100133.44
2022-11-05T03:20:10.990Z,100126.83
2022-11-05T03:21:15.313Z,100134.72
2022-11-05T03:22:19.530Z,100135.13
2022-11-05T03:23:23.749Z,100143.22
2022-11-05T03:24:28.057Z,100142.63
2022-11-05T03:25:32.298Z,100137.2
2022-11-05T03:26:36.546Z,100145.98
2022-11-05T03:27:40.756Z,100145.16
2022-11-05T03:28:44.969Z,100146.58
2022-11-05T03:29:49.223Z,100144.69
2022-11-05T03:30:53.480Z,100145.09
2022-11-05T03:31:57.754Z,100154.2
2022-11-05T03:33:02.006Z,100153.79
2022-11-05T03:34:06.267Z,100155.28
2022-11-05T03:35:10.522Z,100159.75
2022-11-05T03:36:14.751Z,100156.14
2022-11-05T03:37:18.982Z,100163.32
2022-11-05T03:38:23.240Z,100162.98
2022-11-05T03:39:27.714Z,100161.16
2022-11-05T03:40:31.953Z,100162.66
2022-11-05T03:41:36.208Z,100165.1
2022-11-05T03:42:40.494Z,100168.52
2022-11-05T03:43:44.776Z,100170.95
2022-11-05T03:44:48.992Z,100174.7
2022-11-05T03:45:53.228Z,100175.56
2022-11-05T03:46:57.485Z,100179.16
2022-11-05T03:48:01.742Z,100180.84
2022-11-05T03:49:06.116Z,100174.48
2022-11-05T03:50:10.336Z,100178.29
2022-11-05T03:51:14.566Z,100175.38
2022-11-05T03:52:18.822Z,100180.38
2022-11-05T03:53:23.052Z,100185.09
2022-11-05T03:54:27.290Z,100182.85
2022-11-05T03:55:31.598Z,100186.33
2022-11-05T03:56:35.943Z,100188.41
2022-11-05T03:57:40.147Z,100192.42
2022-11-05T03:58:44.360Z,100195.47
2022-11-05T03:59:48.595Z,100206.84
2022-11-05T04:00:52.831Z,100213.47
2022-11-05T04:01:57.475Z,100208.11
2022-11-05T04:03:02.117Z,100214.88
2022-11-05T04:04:06.528Z,100214.21
2022-11-05T04:05:10.815Z,100208.19
2022-11-05T04:06:15.166Z,100210.86
2022-11-05T04:07:19.377Z,100215.86
2022-11-05T04:08:23.641Z,100206.16
2022-11-05T04:09:27.834Z,100207.83
2022-11-05T04:10:32.044Z,100213.95
2022-11-05T04:11:38.559Z,100210.84
2022-11-05T04:12:42.775Z,100218.98
2022-11-05T04:13:46.991Z,100217.72
2022-11-05T04:14:51.200Z,100213.7
2022-11-05T04:15:55.398Z,100216.2
2022-11-05T04:16:59.633Z,100221.43
2022-11-05T04:18:03.887Z,100218.67
2022-11-05T04:19:08.137Z,100220.34
2022-11-05T04:20:12.401Z,100219.83
2022-11-05T04:21:16.627Z,100222.14
2022-11-05T04:22:20.866Z,100227.76
2022-11-05T04:23:25.139Z,100229.25
2022-11-05T04:24:29.337Z,100225.75
2022-11-05T04:25:33.595Z,100233.11
2022-11-05T04:26:37.799Z,100234.45
2022-11-05T04:27:42.017Z,100235.72
2022-11-05T04:28:46.309Z,100232.86
2022-11-05T04:29:50.563Z,100238.55
2022-11-05T04:30:54.820Z,100235.95
2022-11-05T04:31:59.070Z,100239.41
2022-11-05T04:33:03.308Z,100239.89
2022-11-05T04:34:07.580Z,100240.89
2022-11-05T04:35:11.825Z,100238.8
2022-11-05T04:36:16.025Z,100241.63
2022-11-05T04:37:20.257Z,100244.23
2022-11-05T04:38:24.508Z,100243.91
2022-11-05T04:39:28.778Z,100245.58
2022-11-05T04:40:33.024Z,100248.77
2022-11-05T04:41:37.228Z,100252.2
2022-11-05T04:42:41.450Z,100252.61
2022-11-05T04:43:46.701Z,100250
2022-11-05T04:44:50.911Z,100252.45
2022-11-05T04:45:55.138Z,100260.3
2022-11-05T04:46:59.379Z,100256.21
2022-11-05T04:48:03.599Z,100266.25
2022-11-05T04:49:07.846Z,100268.19
2022-11-05T04:50:12.103Z,100268.59
2022-11-05T04:51:16.350Z,100272.61
2022-11-05T04:52:20.565Z,100272.77
2022-11-05T04:53:24.769Z,100270.86
2022-11-05T04:54:28.987Z,100273.21
2022-11-05T04:55:33.218Z,100271.42
2022-11-05T04:56:37.482Z,100279.64
2022-11-05T04:57:41.709Z,100284.81
2022-11-05T04:58:45.946Z,100281.47
2022-11-05T04:59:50.176Z,100293.63
2022-11-05T05:00:54.650Z,100292.1
2022-11-05T05:01:59.156Z,100298.45
2022-11-05T05:03:03.534Z,100294.89
2022-11-05T05:04:07.791Z,100296.72
2022-11-05T05:05:12.006Z,100304.16
2022-11-05T05:06:16.247Z,100305.94
2022-11-05T05:07:20.503Z,100303.08
2022-11-05T05:08:24.785Z,100308.92
2022-11-05T05:09:29.016Z,100304.19
2022-11-05T05:10:33.276Z,100299.84
2022-11-05T05:11:37.502Z,100306.87
2022-11-05T05:12:41.742Z,100306.2
2022-11-05T05:13:46.025Z,100302.99
2022-11-05T05:14:50.246Z,100300.5
2022-11-05T05:15:54.504Z,100304.17
2022-11-05T05:16:58.723Z,100310.28
2022-11-05T05:18:03.343Z,100307.86
2022-11-05T05:19:07.642Z,100306.19
2022-11-05T05:20:11.871Z,100316.53
2022-11-05T05:21:16.108Z,100310.61
2022-11-05T05:22:20.367Z,100312.77
2022-11-05T05:23:24.597Z,100307.74
2022-11-05T05:24:28.869Z,100318.87
2022-11-05T05:25:33.074Z,100312.02
2022-11-05T05:26:37.322Z,100326.23
2022-11-05T05:27:41.579Z,100318.8
2022-11-05T05:28:45.787Z,100321.48
2022-11-05T05:29:50.058Z,100325.42
2022-11-05T05:30:59.539Z,100327.84
2022-11-05T05:32:03.783Z,100329.69
2022-11-05T05:33:08.156Z,100331.1
2022-11-05T05:34:12.811Z,100340.48
2022-11-05T05:35:17.114Z,100329.42
2022-11-05T05:36:21.388Z,100340.13
2022-11-05T05:37:25.625Z,100346.5
2022-11-05T05:38:29.815Z,100351.41
2022-11-05T05:39:34.054Z,100351.92
2022-11-05T05:40:38.310Z,100358.44
2022-11-05T05:41:42.516Z,100352.92
2022-11-05T05:42:46.730Z,100355.93
2022-11-05T05:43:51.010Z,100364.16
2022-11-05T05:44:55.231Z,100374.28
2022-11-05T05:45:59.432Z,100369.58
2022-11-05T05:47:03.637Z,100368.83
2022-11-05T05:48:07.880Z,100375.8
2022-11-05T05:49:13.694Z,100372.59
2022-11-05T05:50:17.933Z,100375.94
2022-11-05T05:51:22.331Z,100378.88
2022-11-05T05:52:26.517Z,100382.3
2022-11-05T05:53:30.773Z,100383.55
2022-11-05T05:54:42.851Z,100389.17
2022-11-05T05:55:47.283Z,100394.09
2022-11-05T05:56:51.486Z,100391.34
2022-11-05T05:57:55.745Z,100393.09
2022-11-05T05:58:59.972Z,100395.61
2022-11-05T06:00:04.257Z,100394.27
2022-11-05T06:01:08.463Z,100402.06
2022-11-05T06:02:19.105Z,100412.2
2022-11-05T06:03:23.623Z,100401.13
2022-11-05T06:04:27.865Z,100404.49
2022-11-05T06:05:32.147Z,100410.72
2022-11-05T06:06:36.357Z,100408.45
2022-11-05T06:07:40.592Z,100405.17
2022-11-05T06:08:44.785Z,100414.91
2022-11-05T06:09:49.020Z,100419.04
2022-11-05T06:10:53.432Z,100424.07
2022-11-05T06:11:57.759Z,100422.99
2022-11-05T06:13:01.996Z,100422.81
2022-11-05T06:14:06.233Z,100431.05
2022-11-05T06:15:10.601Z,100429.78
2022-11-05T06:16:14.840Z,100432.02
2022-11-05T06:17:19.113Z,100441.41
2022-11-05T06:18:23.475Z,100439.73
2022-11-05T06:19:27.684Z,100439.89
2022-11-05T06:20:31.916Z,100446.33
2022-11-05T06:21:36.141Z,100445.59
2022-11-05T06:22:40.372Z,100443.5
2022-11-05T06:23:44.652Z,100442.34
2022-11-05T06:24:48.896Z,100443.76
2022-11-05T06:25:53.112Z,100444.02
2022-11-05T06:26:57.391Z,100438.22
2022-11-05T06:28:01.662Z,100444.69
2022-11-05T06:29:05.894Z,100452.88
2022-11-05T06:30:10.177Z,100454.74
2022-11-05T06:31:14.488Z,100458.99
2022-11-05T06:32:18.753Z,100462.86
2022-11-05T06:33:23.044Z,100462.45
2022-11-05T06:34:27.305Z,100463.2
2022-11-05T06:35:31.615Z,100464.95
2022-11-05T06:36:35.837Z,100471.31
2022-11-05T06:37:40.060Z,100469.56
2022-11-05T06:38:44.324Z,100466.62
2022-11-05T06:39:48.640Z,100464.2
2022-11-05T06:40:52.987Z,100460.09
2022-11-05T06:42:19.178Z,100464.27
2022-11-05T06:43:23.683Z,100470.3
2022-11-05T06:44:27.945Z,100468.63
2022-11-05T06:45:32.196Z,100472.75
2022-11-05T06:46:36.497Z,100475.43
2022-11-05T06:47:40.797Z,100477.67
2022-11-05T06:48:45.026Z,100477.34
2022-11-05T06:49:49.254Z,100483.14
2022-11-05T06:50:53.536Z,100483.7
2022-11-05T06:51:57.755Z,100481.35
2022-11-05T06:53:01.986Z,100498.36
2022-11-05T06:54:06.248Z,100507.41
2022-11-05T06:55:10.470Z,100507.81
2022-11-05T06:56:14.774Z,100509.6
2022-11-05T06:57:20.038Z,100514.11
2022-11-05T06:58:24.315Z,100510.42
2022-11-05T06:59:28.558Z,100510.94
2022-11-05T07:00:33.001Z,100515.3
2022-11-05T07:01:37.808Z,100521.74
2022-11-05T07:02:42.384Z,100518.22
2022-11-05T07:03:46.596Z,100525.27
2022-11-05T07:04:50.862Z,100517.56
2022-11-05T07:05:55.110Z,100516.82
2022-11-05T07:06:59.373Z,100522.86
2022-11-05T07:08:03.655Z,100523.34
2022-11-05T07:09:07.896Z,100522.61
2022-11-05T07:10:12.144Z,100527.25
2022-11-05T07:11:16.365Z,100527.07
2022-11-05T07:12:20.612Z,100519.95
2022-11-05T07:13:24.975Z,100526.47
2022-11-05T07:14:29.226Z,100528.34
2022-11-05T07:15:33.459Z,100528.75
2022-11-05T07:16:37.685Z,100532.61
2022-11-05T07:17:41.907Z,100538.8
2022-11-05T07:18:46.572Z,100533.95
2022-11-05T07:19:50.814Z,100546.52
2022-11-05T07:20:55.059Z,100542.9
2022-11-05T07:21:59.286Z,100542.56
2022-11-05T07:23:03.538Z,100543.5
2022-11-05T07:24:07.753Z,100537.77
2022-11-05T07:25:11.940Z,100544.05
2022-11-05T07:26:16.181Z,100546.81
2022-11-05T07:27:20.407Z,100539.98
2022-11-05T07:28:24.630Z,100540.41
2022-11-05T07:29:28.876Z,100543.13
2022-11-05T07:30:33.131Z,100551.17
2022-11-05T07:31:37.381Z,100547.41
2022-11-05T07:32:41.612Z,100550.09
2022-11-05T07:33:45.846Z,100557.8
2022-11-05T07:34:50.096Z,100555.86
2022-11-05T07:35:54.360Z,100556.38
2022-11-05T07:36:58.583Z,100552.95
2022-11-05T07:38:02.809Z,100556.7
2022-11-05T07:39:07.064Z,100552.34
2022-11-05T07:40:11.276Z,100551.01
2022-11-05T07:41:15.529Z,100557.04
2022-11-05T07:42:19.853Z,100553.95
2022-11-05T07:43:24.119Z,100558.12
2022-11-05T07:44:28.403Z,100556.52
2022-11-05T07:45:32.644Z,100559.31
2022-11-05T07:46:36.963Z,100558.64
2022-11-05T07:47:41.260Z,100566.5
2022-11-05T07:48:45.525Z,100563.4
2022-11-05T07:49:49.784Z,100568.9
2022-11-05T07:50:53.987Z,100570.75
2022-11-05T07:51:58.251Z,100575.02
2022-11-05T07:53:02.510Z,100580.3
2022-11-05T07:54:06.794Z,100573.33
2022-11-05T07:55:11.034Z,100576.27
2022-11-05T07:56:15.289Z,100582.97
2022-11-05T07:57:19.526Z,100578.75
2022-11-05T07:58:23.725Z,100576.25
2022-11-05T07:59:27.931Z,100572.7
2022-11-05T08:00:32.322Z,100579.17
2022-11-05T08:01:37.197Z,100576.23
2022-11-05T08:02:42.516Z,100581
2022-11-05T08:03:47.588Z,100577.56
2022-11-05T08:04:51.998Z,100584.41
2022-11-05T08:05:56.228Z,100592.45
2022-11-05T08:07:00.442Z,100586.52
2022-11-05T08:08:04.721Z,100586.25
2022-11-05T08:09:08.981Z,100596.63
2022-11-05T08:10:13.223Z,100591.61
2022-11-05T08:11:17.453Z,100597.48
2022-11-05T08:12:21.692Z,100600.66
2022-11-05T08:13:25.945Z,100607.02
2022-11-05T08:14:30.189Z,100610.95
2022-11-05T08:15:34.407Z,100611.78
2022-11-05T08:16:38.681Z,100612.38
2022-11-05T08:17:42.905Z,100620.92
2022-11-05T08:18:47.149Z,100609.87
2022-11-05T08:19:51.394Z,100624.67
2022-11-05T08:20:55.637Z,100628.96
2022-11-05T08:21:59.939Z,100621.67
2022-11-05T08:23:04.181Z,100626.7
2022-11-05T08:24:08.415Z,100631.13
2022-11-05T08:25:12.656Z,100632.72
2022-11-05T08:26:16.913Z,100637.22
2022-11-05T08:27:21.180Z,100628.86
2022-11-05T08:28:25.412Z,100636
2022-11-05T08:29:29.682Z,100637.58
2022-11-05T08:30:33.909Z,100641.7
2022-11-05T08:31:38.105Z,100639.94
2022-11-05T08:32:42.370Z,100641.95
2022-11-05T08:33:46.610Z,100647.74
2022-11-05T08:34:50.862Z,100650.34
2022-11-05T08:35:55.090Z,100653.56
2022-11-05T08:36:59.334Z,100654.73
2022-11-05T08:38:03.594Z,100661.38
2022-11-05T08:39:10.642Z,100661.8
2022-11-05T08:40:20.440Z,100661.2
2022-11-05T08:41:24.710Z,100666.57
2022-11-05T08:42:28.956Z,100665.41
2022-11-05T08:43:33.217Z,100671.67
2022-11-05T08:44:37.451Z,100671.77
2022-11-05T08:45:41.660Z,100665.89
2022-11-05T08:46:45.878Z,100671.92
2022-11-05T08:47:50.087Z,100674.59
2022-11-05T08:48:54.369Z,100676.86
2022-11-05T08:49:58.595Z,100673.33
2022-11-05T08:51:02.812Z,100675.59
2022-11-05T08:52:07.068Z,100675.01
2022-11-05T08:53:12.356Z,100671.92
2022-11-05T08:54:17.345Z,100676.01
2022-11-05T08:55:21.571Z,100682.38
2022-11-05T08:56:25.831Z,100675.33
2022-11-05T08:57:30.082Z,100677.19
2022-11-05T08:58:34.362Z,100684.22
2022-11-05T08:59:38.597Z,100684.83
2022-11-05T09:00:42.986Z,100683.16
2022-11-05T09:01:47.673Z,100680.55
2022-11-05T09:02:52.195Z,100682.38
2022-11-05T09:03:56.441Z,100691.34
2022-11-05T09:05:00.712Z,100690.66
2022-11-05T09:06:04.933Z,100694.34
2022-11-05T09:07:09.214Z,100696.92
2022-11-05T09:08:13.458Z,100699.61
2022-11-05T09:09:17.732Z,100703.7
2022-11-05T09:10:21.990Z,100705.97
2022-11-05T09:12:10.925Z,100709.72
2022-11-05T09:13:20.973Z,100712.98
2022-11-05T09:14:26.259Z,100717.41
2022-11-05T09:15:30.493Z,100716.73
2022-11-05T09:16:34.771Z,100720
2022-11-05T09:17:39.010Z,100719.08
2022-11-05T09:18:43.287Z,100723.95
2022-11-05T09:19:47.514Z,100724.87
2022-11-05T09:20:51.754Z,100728.63
2022-11-05T09:21:56.044Z,100732.58
2022-11-05T09:23:00.254Z,100724.95
2022-11-05T09:24:04.499Z,100734.98
2022-11-05T09:25:08.723Z,100733.74
2022-11-05T09:26:12.970Z,100725.95
2022-11-05T09:27:17.279Z,100724.92
2022-11-05T09:28:21.646Z,100728.7
2022-11-05T09:29:25.846Z,100724.02
2022-11-05T09:30:30.065Z,100726.7
2022-11-05T09:31:34.273Z,100732.47
2022-11-05T09:32:38.523Z,100730.38
2022-11-05T09:33:42.776Z,100729.7
2022-11-05T09:34:47.002Z,100726.95
2022-11-05T09:35:51.259Z,100729.7
2022-11-05T09:36:55.486Z,100730.45
2022-11-05T09:38:02.194Z,100739.42
2022-11-05T09:39:06.471Z,100737.39
2022-11-05T09:40:10.716Z,100746.39
2022-11-05T09:41:14.983Z,100738.96
2022-11-05T09:42:19.230Z,100747.44
2022-11-05T09:43:31.614Z,100736.16
2022-11-05T09:44:36.223Z,100748.06
2022-11-05T09:45:40.461Z,100749.42
2022-11-05T09:46:44.680Z,100744.25
2022-11-05T09:47:48.924Z,100747.52
2022-11-05T09:48:53.182Z,100747.44
2022-11-05T09:49:57.467Z,100750.39
2022-11-05T09:51:01.734Z,100751.31
2022-11-05T09:52:06.213Z,100751.22
2022-11-05T09:53:11.181Z,100754.83
2022-11-05T09:54:16.112Z,100758.02
2022-11-05T09:55:20.339Z,100756
2022-11-05T09:56:24.647Z,100761.77
2022-11-05T09:57:29.084Z,100762.7
2022-11-05T09:58:33.621Z,100757
2022-11-05T09:59:37.865Z,100759.25
2022-11-05T10:00:42.364Z,100760.59
2022-11-05T10:01:47.009Z,100762.75
2022-11-05T10:02:51.510Z,100762.41
2022-11-05T10:03:55.763Z,100768.19
2022-11-05T10:05:08.205Z,100761.32
2022-11-05T10:06:14.023Z,100764.83
2022-11-05T10:07:18.245Z,100773.04
2022-11-05T10:08:22.486Z,100765.66
2022-11-05T10:09:26.758Z,100766.31
2022-11-05T10:10:31.419Z,100764.39
2022-11-05T10:11:43.603Z,100772.84
2022-11-05T10:12:47.855Z,100771.61
2022-11-05T10:13:52.112Z,100780.55
2022-11-05T10:14:56.386Z,100777.52
2022-11-05T10:16:00.602Z,100773.16
2022-11-05T10:17:04.846Z,100778.28
2022-11-05T10:18:09.113Z,100772.72
2022-11-05T10:19:13.388Z,100780.52
2022-11-05T10:20:17.665Z,100772.7
2022-11-05T10:22:05.351Z,100779.5
2022-11-05T10:23:11.604Z,100778.38
2022-11-05T10:24:16.300Z,100780.59
2022-11-05T10:25:20.548Z,100782.95
2022-11-05T10:26:24.808Z,100779.86
2022-11-05T10:27:30.079Z,100786.17
2022-11-05T10:28:34.357Z,100784.93
2022-11-05T10:29:38.596Z,100784.78
2022-11-05T10:30:42.835Z,100788.22
2022-11-05T10:31:47.072Z,100785.95
2022-11-05T10:32:51.332Z,100789.66
2022-11-05T10:33:55.736Z,100795.28
2022-11-05T10:35:00.000Z,100794.43
2022-11-05T10:36:04.248Z,100792.77
2022-11-05T10:37:09.517Z,100790.19
2022-11-05T10:38:13.771Z,100790.61
2022-11-05T10:39:17.995Z,100791.28
2022-11-05T10:40:22.260Z,100798.67
2022-11-05T10:41:26.527Z,100792.99
2022-11-05T10:42:30.778Z,100798.08
2022-11-05T10:43:35.015Z,100799.16
2022-11-05T10:44:39.268Z,100786.09
2022-11-05T10:45:43.470Z,100793.23
2022-11-05T10:46:47.692Z,100808.33
2022-11-05T10:47:51.931Z,100803.03
2022-11-05T10:48:56.188Z,100803.79
2022-11-05T10:50:00.422Z,100805.39
2022-11-05T10:51:04.710Z,100799.69
2022-11-05T10:52:08.954Z,100808.01
2022-11-05T10:53:14.093Z,100809.76
2022-11-05T10:54:18.595Z,100808.83
2022-11-05T10:55:22.866Z,100813.92
2022-11-05T10:56:27.106Z,100816.87
2022-11-05T10:57:31.380Z,100817.05
2022-11-05T10:58:35.621Z,100819.56
2022-11-05T10:59:39.839Z,100820.56
2022-11-05T11:00:44.258Z,100826.7
2022-11-05T11:01:48.895Z,100823.6
2022-11-05T11:02:53.344Z,100827.64
2022-11-05T11:03:57.636Z,100818.24
2022-11-05T11:05:01.854Z,100822.38
2022-11-05T11:06:06.095Z,100820.14
2022-11-05T11:07:10.355Z,100821.18
2022-11-05T11:08:14.821Z,100819.32
2022-11-05T11:09:19.114Z,100818.52
2022-11-05T11:10:23.379Z,100826.58
2022-11-05T11:11:27.577Z,100825.98
2022-11-05T11:12:33.746Z,100820.88
2022-11-05T11:13:44.125Z,100832.7
2022-11-05T11:14:48.394Z,100829.5
2022-11-05T11:15:52.668Z,100836.37
2022-11-05T11:16:56.909Z,100840.39
2022-11-05T11:18:01.137Z,100838.31
2022-11-05T11:19:05.363Z,100839.12
2022-11-05T11:20:10.247Z,100836.01
2022-11-05T11:21:14.477Z,100831.92
2022-11-05T11:22:18.750Z,100833.75
2022-11-05T11:23:22.991Z,100830.66
2022-11-05T11:24:33.594Z,100831.41
2022-11-05T11:25:38.033Z,100836.12
2022-11-05T11:26:42.326Z,100842
2022-11-05T11:27:46.621Z,100836.78
2022-11-05T11:28:50.850Z,100841.66
2022-11-05T11:29:55.168Z,100838.39
2022-11-05T11:30:59.414Z,100841.88
2022-11-05T11:32:03.642Z,100842.14
2022-11-05T11:33:07.881Z,100836.37
2022-11-05T11:34:12.683Z,100839.88
2022-11-05T11:35:16.944Z,100842.22
2022-11-05T11:36:21.203Z,100844.08
2022-11-05T11:37:25.468Z,100845.48
2022-11-05T11:38:29.741Z,100849.52
2022-11-05T11:39:33.972Z,100848.17
2022-11-05T11:40:38.225Z,100844.67
2022-11-05T11:41:42.532Z,100849.69
2022-11-05T11:42:46.794Z,100848.52
2022-11-05T11:43:51.086Z,100856.08
2022-11-05T11:44:55.360Z,100854.73
2022-11-05T11:46:09.971Z,100853.48
2022-11-05T11:47:18.450Z,100854.75
2022-11-05T11:48:22.674Z,100858.6
2022-11-05T11:49:26.931Z,100864.05
2022-11-05T11:50:31.171Z,100866.17
2022-11-05T11:51:35.428Z,100865.72
2022-11-05T11:52:39.655Z,100868.67
2022-11-05T11:53:43.891Z,100861.63
2022-11-05T11:54:48.141Z,100866.23
2022-11-05T11:55:52.412Z,100866.66
2022-11-05T11:56:56.665Z,100858.53
2022-11-05T11:58:00.922Z,100865.73
2022-11-05T11:59:05.171Z,100858.62
2022-11-05T12:00:10.639Z,100863.14
2022-11-05T12:01:14.932Z,100853.95
2022-11-05T12:02:19.581Z,100864.59
2022-11-05T12:03:24.316Z,100870.71
2022-11-05T12:04:28.750Z,100858.56
2022-11-05T12:05:32.998Z,100862.45
2022-11-05T12:06:40.254Z,100864.61
2022-11-05T12:07:44.503Z,100872.25
2022-11-05T12:09:03.508Z,100861.66
2022-11-05T12:10:10.588Z,100868.16
2022-11-05T12:11:14.794Z,100870.56
2022-11-05T12:12:19.096Z,100869.38
2022-11-05T12:13:23.397Z,100862.02
2022-11-05T12:14:27.655Z,100860.81
2022-11-05T12:15:31.928Z,100865.7
2022-11-05T12:16:36.155Z,100863.23
2022-11-05T12:17:40.446Z,100856.95
2022-11-05T12:18:44.672Z,100867.09
2022-11-05T12:19:48.911Z,100857.61
2022-11-05T12:20:58.937Z,100864.89
2022-11-05T12:22:03.184Z,100860.85
2022-11-05T12:23:07.447Z,100868.55